SWA3318 KMDW-KMKE
Flight info
| Callsign | SWA3318 |
|---|---|
| Flight time | 0h 30m |
| Altitude | 7000 |
| Route | RAYNR BRTMN TAAYZ |
| Aircraft | B737/M-SDE2E3FGHIRWXY/LB1 |
Departure
| Time | 2026-05-08 02:02 |
|---|---|
| Airport | Chicago Midway International Airport (KMDW) |
Arrival
| Time | 2026-05-08 02:32 |
|---|---|
| Airport | General Mitchell International Airport (KMKE) |
| Time | Latitude | Longitude | Altitude | Speed | Heading |
|---|---|---|---|---|---|
| 2026-05-08 01:31 | 41.78509 | -87.74263 | 612 ft | 0 kts | 339° |
| 2026-05-08 01:52 | 41.78505 | -87.74261 | 612 ft | 2 kts | 339° |
| 2026-05-08 01:53 | 41.78491 | -87.74254 | 612 ft | 2 kts | 339° |
| 2026-05-08 01:53 | 41.78477 | -87.74247 | 612 ft | 2 kts | 339° |
| 2026-05-08 01:53 | 41.78463 | -87.74240 | 612 ft | 2 kts | 340° |
| 2026-05-08 01:53 | 41.78453 | -87.74236 | 612 ft | 1 kts | 15° |
| 2026-05-08 01:54 | 41.78445 | -87.74246 | 612 ft | 2 kts | 54° |
| 2026-05-08 01:54 | 41.78434 | -87.74260 | 612 ft | 2 kts | 41° |
| 2026-05-08 01:54 | 41.78423 | -87.74274 | 612 ft | 2 kts | 44° |
| 2026-05-08 01:54 | 41.78412 | -87.74288 | 612 ft | 2 kts | 43° |
| 2026-05-08 01:55 | 41.78402 | -87.74302 | 612 ft | 2 kts | 44° |
| 2026-05-08 01:55 | 41.78391 | -87.74315 | 612 ft | 2 kts | 43° |
| 2026-05-08 01:55 | 41.78380 | -87.74329 | 612 ft | 1 kts | 43° |
| 2026-05-08 01:55 | 41.78371 | -87.74339 | 612 ft | 2 kts | 25° |
| 2026-05-08 01:56 | 41.78357 | -87.74348 | 612 ft | 2 kts | 31° |
| 2026-05-08 01:56 | 41.78344 | -87.74359 | 612 ft | 2 kts | 30° |
| 2026-05-08 01:56 | 41.78333 | -87.74367 | 612 ft | 1 kts | 30° |
| 2026-05-08 01:56 | 41.78321 | -87.74368 | 612 ft | 2 kts | 353° |
| 2026-05-08 01:57 | 41.78306 | -87.74368 | 612 ft | 2 kts | 1° |
| 2026-05-08 01:57 | 41.78293 | -87.74368 | 612 ft | 0 kts | 359° |
| 2026-05-08 01:59 | 41.78308 | -87.74375 | 612 ft | 6 kts | 328° |
| 2026-05-08 01:59 | 41.78373 | -87.74458 | 612 ft | 18 kts | 313° |
| 2026-05-08 01:59 | 41.78480 | -87.74609 | 612 ft | 25 kts | 312° |
| 2026-05-08 01:59 | 41.78596 | -87.74765 | 612 ft | 18 kts | 333° |
| 2026-05-08 02:00 | 41.78724 | -87.74753 | 612 ft | 20 kts | 40° |
| 2026-05-08 02:00 | 41.78843 | -87.74596 | 612 ft | 26 kts | 44° |
| 2026-05-08 02:00 | 41.78943 | -87.74469 | 612 ft | 19 kts | 43° |
| 2026-05-08 02:00 | 41.79009 | -87.74388 | 612 ft | 13 kts | 42° |
| 2026-05-08 02:01 | 41.79097 | -87.74281 | 611 ft | 19 kts | 41° |
| 2026-05-08 02:01 | 41.79173 | -87.74331 | 612 ft | 9 kts | 250° |
| 2026-05-08 02:01 | 41.79125 | -87.74402 | 612 ft | 7 kts | 224° |
| 2026-05-08 02:01 | 41.78947 | -87.74621 | 612 ft | 72 kts | 223° |
| 2026-05-08 02:02 | 41.78376 | -87.75348 | 625 ft | 149 kts | 223° |
| 2026-05-08 02:02 | 41.77602 | -87.76373 | 1359 ft | 162 kts | 222° |
| 2026-05-08 02:02 | 41.76825 | -87.77338 | 2222 ft | 157 kts | 221° |
| 2026-05-08 02:02 | 41.75997 | -87.78356 | 2767 ft | 165 kts | 221° |
| 2026-05-08 02:03 | 41.75175 | -87.79365 | 3433 ft | 165 kts | 222° |
| 2026-05-08 02:03 | 41.74309 | -87.80456 | 3935 ft | 175 kts | 226° |
| 2026-05-08 02:03 | 41.73736 | -87.81956 | 4318 ft | 197 kts | 259° |
| 2026-05-08 02:03 | 41.73945 | -87.83796 | 4869 ft | 209 kts | 300° |
| 2026-05-08 02:04 | 41.74958 | -87.84989 | 5932 ft | 194 kts | 330° |
| 2026-05-08 02:04 | 41.76223 | -87.85684 | 6441 ft | 209 kts | 340° |
| 2026-05-08 02:04 | 41.77736 | -87.85925 | 6879 ft | 232 kts | 359° |
| 2026-05-08 02:04 | 41.79442 | -87.85631 | 7015 ft | 259 kts | 4° |
| 2026-05-08 02:05 | 41.81264 | -87.85308 | 6995 ft | 263 kts | 1° |
| 2026-05-08 02:05 | 41.83073 | -87.85122 | 6999 ft | 260 kts | 358° |
| 2026-05-08 02:05 | 41.84876 | -87.85037 | 6999 ft | 259 kts | 356° |
| 2026-05-08 02:05 | 41.86685 | -87.84956 | 6997 ft | 259 kts | 356° |
| 2026-05-08 02:06 | 41.88487 | -87.84853 | 6998 ft | 259 kts | 357° |
| 2026-05-08 02:06 | 41.90292 | -87.84734 | 6995 ft | 260 kts | 356° |
| 2026-05-08 02:06 | 41.92093 | -87.84654 | 6994 ft | 259 kts | 356° |
| 2026-05-08 02:06 | 41.93894 | -87.84599 | 6988 ft | 259 kts | 355° |
| 2026-05-08 02:07 | 41.95700 | -87.84533 | 6984 ft | 260 kts | 356° |
| 2026-05-08 02:07 | 41.97507 | -87.84416 | 6986 ft | 260 kts | 357° |
| 2026-05-08 02:07 | 41.99316 | -87.84295 | 6984 ft | 260 kts | 357° |
| 2026-05-08 02:07 | 42.01125 | -87.84197 | 6993 ft | 260 kts | 356° |
| 2026-05-08 02:08 | 42.02931 | -87.84091 | 6985 ft | 260 kts | 356° |
| 2026-05-08 02:08 | 42.04736 | -87.84005 | 6985 ft | 260 kts | 357° |
| 2026-05-08 02:08 | 42.06546 | -87.83886 | 6999 ft | 260 kts | 356° |
| 2026-05-08 02:08 | 42.08349 | -87.83800 | 7018 ft | 259 kts | 355° |
| 2026-05-08 02:09 | 42.10147 | -87.83729 | 7028 ft | 258 kts | 356° |
| 2026-05-08 02:09 | 42.11938 | -87.83640 | 7039 ft | 257 kts | 356° |
| 2026-05-08 02:09 | 42.13720 | -87.83529 | 7036 ft | 256 kts | 356° |
| 2026-05-08 02:09 | 42.15496 | -87.83426 | 7018 ft | 255 kts | 356° |
| 2026-05-08 02:10 | 42.17277 | -87.83331 | 7018 ft | 256 kts | 356° |
| 2026-05-08 02:10 | 42.19051 | -87.83264 | 7019 ft | 256 kts | 356° |
| 2026-05-08 02:10 | 42.20835 | -87.83161 | 7020 ft | 256 kts | 357° |
| 2026-05-08 02:10 | 42.22616 | -87.83057 | 6999 ft | 256 kts | 356° |
| 2026-05-08 02:11 | 42.24396 | -87.82961 | 6992 ft | 256 kts | 356° |
| 2026-05-08 02:11 | 42.26178 | -87.82854 | 6993 ft | 256 kts | 356° |
| 2026-05-08 02:11 | 42.27956 | -87.82781 | 6990 ft | 256 kts | 356° |
| 2026-05-08 02:11 | 42.29738 | -87.82690 | 6989 ft | 256 kts | 356° |
| 2026-05-08 02:12 | 42.31519 | -87.82574 | 6990 ft | 256 kts | 358° |
| 2026-05-08 02:12 | 42.33302 | -87.82383 | 6990 ft | 258 kts | 0° |
| 2026-05-08 02:12 | 42.35085 | -87.82142 | 6995 ft | 258 kts | 0° |
| 2026-05-08 02:12 | 42.36866 | -87.81875 | 6992 ft | 258 kts | 1° |
| 2026-05-08 02:13 | 42.38651 | -87.81648 | 6992 ft | 257 kts | 359° |
| 2026-05-08 02:13 | 42.40434 | -87.81424 | 6991 ft | 258 kts | 0° |
| 2026-05-08 02:13 | 42.42218 | -87.81188 | 6993 ft | 258 kts | 359° |
| 2026-05-08 02:13 | 42.44002 | -87.80958 | 6996 ft | 257 kts | 0° |
| 2026-05-08 02:14 | 42.45785 | -87.80728 | 6993 ft | 258 kts | 360° |
| 2026-05-08 02:14 | 42.47567 | -87.80543 | 6991 ft | 256 kts | 356° |
| 2026-05-08 02:14 | 42.49344 | -87.80569 | 6992 ft | 254 kts | 352° |
| 2026-05-08 02:14 | 42.51108 | -87.80700 | 6995 ft | 254 kts | 351° |
| 2026-05-08 02:15 | 42.52874 | -87.80860 | 6990 ft | 254 kts | 351° |
| 2026-05-08 02:15 | 42.54640 | -87.81004 | 6988 ft | 255 kts | 352° |
| 2026-05-08 02:15 | 42.56410 | -87.81108 | 6989 ft | 255 kts | 352° |
| 2026-05-08 02:15 | 42.58182 | -87.81205 | 6995 ft | 255 kts | 352° |
| 2026-05-08 02:16 | 42.59955 | -87.81319 | 6992 ft | 255 kts | 352° |
| 2026-05-08 02:16 | 42.61726 | -87.81427 | 6994 ft | 255 kts | 352° |
| 2026-05-08 02:16 | 42.63499 | -87.81546 | 6994 ft | 255 kts | 352° |
| 2026-05-08 02:16 | 42.65271 | -87.81664 | 6993 ft | 255 kts | 352° |
| 2026-05-08 02:17 | 42.67045 | -87.81784 | 6992 ft | 255 kts | 352° |
| 2026-05-08 02:17 | 42.68817 | -87.81902 | 6993 ft | 255 kts | 352° |
| 2026-05-08 02:17 | 42.70590 | -87.82014 | 6992 ft | 255 kts | 353° |
| 2026-05-08 02:17 | 42.72374 | -87.82058 | 6992 ft | 258 kts | 358° |
| 2026-05-08 02:18 | 42.74147 | -87.81579 | 6993 ft | 263 kts | 13° |
| 2026-05-08 02:18 | 42.75864 | -87.80691 | 6991 ft | 265 kts | 18° |
| 2026-05-08 02:18 | 42.77569 | -87.79744 | 6993 ft | 265 kts | 17° |
| 2026-05-08 02:18 | 42.79281 | -87.78839 | 6994 ft | 264 kts | 16° |
| 2026-05-08 02:19 | 42.81003 | -87.77962 | 6996 ft | 264 kts | 15° |
| 2026-05-08 02:19 | 42.82726 | -87.77101 | 6998 ft | 264 kts | 15° |
| 2026-05-08 02:19 | 42.84450 | -87.76244 | 7000 ft | 264 kts | 15° |
| 2026-05-08 02:19 | 42.86175 | -87.75389 | 7001 ft | 264 kts | 15° |
| 2026-05-08 02:20 | 42.87902 | -87.74530 | 7002 ft | 264 kts | 15° |
| 2026-05-08 02:20 | 42.89628 | -87.73672 | 7002 ft | 264 kts | 15° |
| 2026-05-08 02:20 | 42.91353 | -87.72815 | 7002 ft | 264 kts | 15° |
| 2026-05-08 02:20 | 42.93080 | -87.71955 | 7002 ft | 264 kts | 15° |
| 2026-05-08 02:21 | 42.94803 | -87.71098 | 7002 ft | 264 kts | 15° |
| 2026-05-08 02:21 | 42.96528 | -87.70234 | 7002 ft | 264 kts | 15° |
| 2026-05-08 02:21 | 42.98249 | -87.69375 | 7002 ft | 264 kts | 16° |
| 2026-05-08 02:21 | 42.99973 | -87.68514 | 7002 ft | 264 kts | 16° |
| 2026-05-08 02:22 | 43.01698 | -87.67657 | 7002 ft | 264 kts | 16° |
| 2026-05-08 02:22 | 43.03421 | -87.66798 | 7002 ft | 264 kts | 16° |
| 2026-05-08 02:22 | 43.05166 | -87.65929 | 7001 ft | 266 kts | 16° |
| 2026-05-08 02:22 | 43.06888 | -87.65064 | 7003 ft | 263 kts | 16° |
| 2026-05-08 02:23 | 43.08610 | -87.64202 | 6981 ft | 264 kts | 16° |
| 2026-05-08 02:23 | 43.10332 | -87.63338 | 6926 ft | 263 kts | 16° |
| 2026-05-08 02:23 | 43.12071 | -87.62614 | 6843 ft | 255 kts | 6° |
| 2026-05-08 02:23 | 43.13740 | -87.62638 | 6765 ft | 230 kts | 338° |
| 2026-05-08 02:24 | 43.15037 | -87.63713 | 6642 ft | 212 kts | 312° |
| 2026-05-08 02:24 | 43.15916 | -87.65284 | 6386 ft | 206 kts | 298° |
| 2026-05-08 02:24 | 43.16440 | -87.67064 | 6157 ft | 201 kts | 280° |
| 2026-05-08 02:24 | 43.16601 | -87.68954 | 5916 ft | 200 kts | 275° |
| 2026-05-08 02:25 | 43.16730 | -87.70838 | 5693 ft | 198 kts | 276° |
| 2026-05-08 02:25 | 43.16889 | -87.72704 | 5477 ft | 197 kts | 277° |
| 2026-05-08 02:25 | 43.17064 | -87.74549 | 5251 ft | 196 kts | 277° |
| 2026-05-08 02:25 | 43.17238 | -87.76388 | 5029 ft | 195 kts | 277° |
| 2026-05-08 02:26 | 43.17408 | -87.78219 | 4810 ft | 194 kts | 277° |
| 2026-05-08 02:26 | 43.17575 | -87.80041 | 4602 ft | 192 kts | 277° |
| 2026-05-08 02:26 | 43.17726 | -87.81854 | 4393 ft | 191 kts | 273° |
| 2026-05-08 02:26 | 43.17546 | -87.83630 | 4184 ft | 190 kts | 247° |
| 2026-05-08 02:27 | 43.16721 | -87.85019 | 3999 ft | 189 kts | 220° |
| 2026-05-08 02:27 | 43.15590 | -87.85898 | 3869 ft | 186 kts | 202° |
| 2026-05-08 02:27 | 43.14321 | -87.86202 | 3743 ft | 183 kts | 188° |
| 2026-05-08 02:27 | 43.13065 | -87.86353 | 3618 ft | 180 kts | 189° |
| 2026-05-08 02:28 | 43.11817 | -87.86548 | 3492 ft | 180 kts | 190° |
| 2026-05-08 02:28 | 43.10579 | -87.86760 | 3331 ft | 177 kts | 190° |
| 2026-05-08 02:28 | 43.09365 | -87.86968 | 3163 ft | 174 kts | 190° |
| 2026-05-08 02:28 | 43.08178 | -87.87172 | 3016 ft | 169 kts | 190° |
| 2026-05-08 02:29 | 43.07019 | -87.87371 | 2884 ft | 167 kts | 190° |
| 2026-05-08 02:29 | 43.05862 | -87.87570 | 2660 ft | 167 kts | 190° |
| 2026-05-08 02:29 | 43.04745 | -87.87760 | 2474 ft | 155 kts | 190° |
| 2026-05-08 02:29 | 43.03714 | -87.87936 | 2233 ft | 144 kts | 190° |
| 2026-05-08 02:30 | 43.02759 | -87.88099 | 2035 ft | 133 kts | 190° |
| 2026-05-08 02:30 | 43.01868 | -87.88252 | 1873 ft | 127 kts | 189° |
| 2026-05-08 02:30 | 43.00985 | -87.88405 | 1718 ft | 128 kts | 189° |
| 2026-05-08 02:30 | 43.00105 | -87.88557 | 1549 ft | 126 kts | 188° |
| 2026-05-08 02:31 | 42.99234 | -87.88706 | 1378 ft | 126 kts | 188° |
| 2026-05-08 02:31 | 42.98377 | -87.88868 | 1240 ft | 122 kts | 188° |
| 2026-05-08 02:31 | 42.97539 | -87.89000 | 1084 ft | 121 kts | 185° |
| 2026-05-08 02:31 | 42.96694 | -87.89143 | 985 ft | 123 kts | 186° |
| 2026-05-08 02:32 | 42.95830 | -87.89293 | 819 ft | 126 kts | 184° |
| 2026-05-08 02:32 | 42.94984 | -87.89430 | 733 ft | 110 kts | 191° |
| 2026-05-08 02:32 | 42.94423 | -87.89525 | 733 ft | 61 kts | 186° |
| 2026-05-08 02:32 | 42.94191 | -87.89583 | 733 ft | 36 kts | 203° |
| 2026-05-08 02:33 | 42.94033 | -87.89773 | 732 ft | 15 kts | 252° |
| 2026-05-08 02:33 | 42.94031 | -87.89868 | 732 ft | 13 kts | 320° |
| 2026-05-08 02:34 | 42.94423 | -87.89954 | 732 ft | 22 kts | 352° |
| 2026-05-08 02:34 | 42.94551 | -87.89880 | 732 ft | 22 kts | 60° |
| 2026-05-08 02:34 | 42.94649 | -87.89744 | 732 ft | 20 kts | 10° |
| 2026-05-08 02:34 | 42.94799 | -87.89712 | 732 ft | 22 kts | 7° |
| 2026-05-08 02:35 | 42.94923 | -87.89710 | 732 ft | 14 kts | 340° |
| 2026-05-08 02:35 | 42.95009 | -87.89795 | 732 ft | 16 kts | 332° |
| 2026-05-08 02:35 | 42.95106 | -87.89897 | 732 ft | 17 kts | 313° |
| 2026-05-08 02:35 | 42.95137 | -87.89983 | 732 ft | 9 kts | 230° |
| 2026-05-08 02:36 | 42.95107 | -87.90029 | 732 ft | 0 kts | 228° |